Time;durP1;ratioP1;P1;durP2;ratioP2;P2;SDS_P1;SDS_P2;PMS_P1;PMS_P2;Temp;Humidity;BMP_temperature;BMP_pressure;BME280_temperature;BME280_humidity;BME280_pressure;Samples;Min_cycle;Max_cycle;Signal;HPM_P1;HPM_P2
2023/02/21 02:13:55;;;;;;;15.35;10.43;;;;;;;8.25;41.32;99663.75;5013888;28;20127;-80
2023/02/21 02:16:39;;;;;;;17.60;10.93;;;;;;;9.17;40.96;99785.75;5013520;28;20048;-80
2023/02/21 02:19:37;;;;;;;14.52;9.82;;;;;;;9.18;41.70;99776.84;5013991;28;20030;-80
2023/02/21 02:22:24;;;;;;;17.48;10.05;;;;;;;9.16;41.12;99776.19;5012380;28;20076;-80
2023/02/21 02:24:59;;;;;;;13.50;8.65;;;;;;;9.14;41.56;99772.91;5013848;28;20503;-80
2023/02/21 02:27:37;;;;;;;15.30;8.75;;;;;;;9.12;41.69;99777.50;5013714;28;20510;-80
2023/02/21 02:30:57;;;;;;;14.10;9.35;;;;;;;9.10;42.13;99767.13;5013700;28;20022;-79
2023/02/21 02:33:45;;;;;;;17.08;9.80;;;;;;;9.02;42.49;99769.75;5012153;28;20030;-80
2023/02/21 02:36:20;;;;;;;15.82;9.10;;;;;;;8.47;41.80;99691.31;5013638;28;20026;-80
2023/02/21 02:39:09;;;;;;;13.70;8.60;;;;;;;9.02;41.67;99758.41;5013646;28;20112;-80
2023/02/21 02:41:57;;;;;;;11.55;7.72;;;;;;;9.00;42.48;99750.66;5008194;28;20042;-80
2023/02/21 02:44:37;;;;;;;11.88;7.50;;;;;;;7.59;42.40;99529.63;5013425;28;20105;-80
2023/02/21 02:47:06;;;;;;;12.55;7.53;;;;;;;8.95;42.12;99741.59;5013392;28;20030;-80
2023/02/21 02:49:35;;;;;;;12.52;8.10;;;;;;;8.54;42.29;99692.31;5011942;28;20033;-80
2023/02/21 02:52:05;;;;;;;13.82;8.63;;;;;;;8.16;42.24;99614.72;5013258;28;20108;-80
2023/02/21 02:54:31;;;;;;;19.13;9.07;;;;;;;8.65;42.48;99693.00;5011939;28;20472;-80
2023/02/21 02:56:57;;;;;;;15.00;7.95;;;;;;;8.57;42.00;99680.63;5013224;28;20125;-80
2023/02/21 02:59:28;;;;;;;18.83;8.45;;;;;;;8.35;42.14;99634.72;5013094;28;20087;-80
2023/02/21 03:02:18;;;;;;;16.55;8.10;;;;;;;8.93;42.70;99733.88;5011810;28;20037;-79
2023/02/21 03:05:02;;;;;;;15.52;8.48;;;;;;;8.91;42.13;99736.63;5013108;28;20026;-79
2023/02/21 03:07:45;;;;;;;18.73;8.52;;;;;;;8.98;42.12;99736.84;5013027;28;20033;-79
2023/02/21 03:10:26;;;;;;;18.13;9.90;;;;;;;8.95;42.55;99726.63;5012814;28;20030;-79
2023/02/21 03:13:32;;;;;;;24.40;9.68;;;;;;;8.39;42.50;99651.00;5011352;28;20057;-79
2023/02/21 03:16:24;;;;;;;17.70;9.65;;;;;;;8.70;42.22;99688.88;4992900;28;20041;-79
2023/02/21 03:18:56;;;;;;;17.58;10.32;;;;;;;8.90;42.22;99728.91;5011610;28;20029;-79
2023/02/21 03:21:28;;;;;;;16.60;9.95;;;;;;;8.59;42.17;99676.03;5012287;28;20022;-79
2023/02/21 03:23:57;;;;;;;18.47;9.23;;;;;;;8.14;42.59;99615.88;5012612;28;20080;-79
2023/02/21 03:26:25;;;;;;;16.88;9.18;;;;;;;7.93;42.61;99576.88;5012536;28;20045;-79
2023/02/21 03:28:51;;;;;;;16.92;8.68;;;;;;;7.95;42.63;99606.44;5011250;28;20025;-79
2023/02/21 03:31:20;;;;;;;17.08;9.63;;;;;;;8.56;42.73;99694.78;5012699;28;20406;-79
2023/02/21 03:33:46;;;;;;;14.38;8.30;;;;;;;7.93;42.69;99597.91;5012412;28;20491;-79
2023/02/21 03:36:11;;;;;;;16.25;6.55;;;;;;;7.84;42.95;99591.78;5011311;28;20033;-79
2023/02/21 03:38:37;;;;;;;12.07;6.80;;;;;;;8.59;42.68;99728.66;5012403;28;20108;-80
2023/02/21 03:41:04;;;;;;;13.80;6.93;;;;;;;7.41;42.76;99534.94;5012688;28;20026;-79
2023/02/21 03:43:29;;;;;;;10.80;5.45;;;;;;;7.33;42.65;99551.50;5012305;28;20061;-79
2023/02/21 03:45:55;;;;;;;9.32;5.97;;;;;;;7.64;42.61;99595.66;5012211;28;20049;-79
2023/02/21 03:48:20;;;;;;;11.68;4.93;;;;;;;8.14;42.70;99700.84;5010823;28;20491;-79
2023/02/21 03:50:46;;;;;;;7.40;4.30;;;;;;;7.67;42.83;99633.94;5010955;28;20029;-79
2023/02/21 03:53:11;;;;;;;8.15;4.90;;;;;;;7.50;42.63;99615.47;5011295;28;20026;-79
2023/02/21 03:55:36;;;;;;;10.98;5.30;;;;;;;8.20;42.74;99742.31;5012131;28;20021;-79
2023/02/21 03:58:02;;;;;;;9.07;4.97;;;;;;;8.05;42.85;99716.75;5012222;28;20049;-79
2023/02/21 04:00:27;;;;;;;10.15;5.13;;;;;;;7.34;43.07;99603.03;5012071;28;20084;-79
2023/02/21 04:02:53;;;;;;;15.48;6.03;;;;;;;7.84;43.29;99711.88;5012217;28;20025;-79
2023/02/21 04:05:18;;;;;;;13.27;5.05;;;;;;;7.65;42.98;99657.75;5010660;28;20026;-79
2023/02/21 04:07:43;;;;;;;16.33;6.88;;;;;;;8.15;43.28;99747.19;5011942;28;20108;-79
2023/02/21 04:10:09;;;;;;;19.58;6.25;;;;;;;7.49;43.37;99655.03;5010620;28;20406;-79
2023/02/21 04:12:34;;;;;;;11.98;6.00;;;;;;;7.49;43.05;99655.03;5010104;28;20050;-79
2023/02/21 04:15:00;;;;;;;13.98;6.40;;;;;;;7.14;43.17;99598.16;5011728;28;20022;-79
2023/02/21 04:17:25;;;;;;;18.63;8.80;;;;;;;7.53;43.52;99672.94;5011653;28;20490;-79
2023/02/21 04:19:51;;;;;;;14.82;9.55;;;;;;;7.45;43.50;99645.81;5010374;28;20018;-79
2023/02/21 04:22:16;;;;;;;15.93;8.25;;;;;;;6.02;43.20;99415.22;5011719;28;20129;-79
2023/02/21 04:24:42;;;;;;;13.57;7.35;;;;;;;7.99;43.56;99736.59;5011609;28;20565;-80
2023/02/21 04:27:07;;;;;;;13.63;6.70;;;;;;;7.42;43.50;99662.69;5011581;28;20025;-78
2023/02/21 04:29:33;;;;;;;13.98;7.72;;;;;;;8.04;43.15;99762.44;5010329;28;20029;-79
2023/02/21 04:31:59;;;;;;;11.77;7.25;;;;;;;8.08;43.08;99742.72;5010297;28;20079;-80
2023/02/21 04:34:24;;;;;;;14.48;7.00;;;;;;;7.25;43.41;99597.91;5011634;28;20033;-80
2023/02/21 04:36:50;;;;;;;12.20;6.90;;;;;;;7.89;43.47;99738.53;5010426;28;20045;-80
2023/02/21 04:39:16;;;;;;;14.85;7.28;;;;;;;7.96;43.54;99745.63;5011565;28;20026;-80
2023/02/21 04:41:41;;;;;;;12.73;6.97;;;;;;;7.71;43.56;99707.06;5011554;28;20030;-80
2023/02/21 04:44:07;;;;;;;23.75;6.68;;;;;;;8.02;43.69;99744.19;5011581;28;20564;-80
2023/02/21 04:46:32;;;;;;;14.50;7.07;;;;;;;7.47;43.86;99678.81;5011310;28;20080;-80
2023/02/21 04:48:58;;;;;;;10.13;6.82;;;;;;;7.66;43.92;99704.06;5011315;28;20037;-80
2023/02/21 04:51:24;;;;;;;16.20;7.22;;;;;;;8.02;43.53;99753.88;5010106;28;20022;-80
2023/02/21 04:53:51;;;;;;;18.70;7.57;;;;;;;8.00;43.62;99746.13;5011238;28;20419;-80
2023/02/21 04:56:20;;;;;;;14.65;6.85;;;;;;;8.02;44.30;99752.06;5011148;28;20029;-79
2023/02/21 04:58:46;;;;;;;14.30;7.68;;;;;;;8.07;44.04;99748.97;5011261;28;20018;-80
2023/02/21 05:01:13;;;;;;;16.30;8.57;;;;;;;8.14;43.63;99739.47;5011448;28;20025;-80
2023/02/21 05:03:38;;;;;;;16.48;8.90;;;;;;;7.44;43.94;99631.03;5010080;28;20021;-80
2023/02/21 05:06:04;;;;;;;18.13;11.13;;;;;;;7.60;43.95;99663.47;5011237;28;20025;-80
2023/02/21 05:08:29;;;;;;;21.55;11.80;;;;;;;7.63;44.36;99684.19;5009896;28;20026;-80
2023/02/21 05:10:55;;;;;;;17.92;10.82;;;;;;;8.06;43.90;99740.25;5011128;28;20097;-80
2023/02/21 05:13:21;;;;;;;24.88;11.27;;;;;;;7.86;44.12;99718.63;5010982;28;20045;-80
2023/02/21 05:15:47;;;;;;;30.70;16.38;;;;;;;7.66;44.30;99701.44;5011433;28;20025;-80
2023/02/21 05:18:13;;;;;;;41.08;24.05;;;;;;;7.37;44.32;99658.88;5011336;28;20049;-80
2023/02/21 05:20:38;;;;;;;62.67;37.88;;;;;;;7.87;44.50;99716.81;5011242;28;20084;-80
2023/02/21 05:23:03;;;;;;;67.25;41.85;;;;;;;8.05;44.32;99748.31;5011084;28;20034;-80
2023/02/21 05:25:29;;;;;;;65.70;40.95;;;;;;;7.65;44.53;99695.34;5013269;28;20450;-80
2023/02/21 05:27:54;;;;;;;62.10;36.28;;;;;;;7.76;44.66;99720.53;5014911;28;20029;-80
2023/02/21 05:30:22;;;;;;;63.03;39.72;;;;;;;8.07;44.71;99751.59;5014788;28;20561;-80
2023/02/21 05:32:48;;;;;;;40.28;25.58;;;;;;;7.79;44.50;99711.53;5013338;28;20026;-79
2023/02/21 05:35:15;;;;;;;40.28;24.02;;;;;;;7.84;44.49;99714.50;5014687;28;20034;-80
2023/02/21 05:37:40;;;;;;;35.42;21.17;;;;;;;7.92;44.61;99733.78;5014495;28;20053;-80
2023/02/21 05:40:06;;;;;;;40.25;21.02;;;;;;;7.73;44.21;99715.59;5014460;28;20065;-80
2023/02/21 05:42:32;;;;;;;43.42;20.60;;;;;;;7.31;44.28;99634.03;5013094;28;20022;-80
2023/02/21 05:44:58;;;;;;;32.67;21.50;;;;;;;7.83;44.55;99726.81;5014336;28;20026;-80
2023/02/21 05:47:24;;;;;;;33.75;22.10;;;;;;;7.83;44.71;99724.19;5014440;28;20060;-80
2023/02/21 05:49:49;;;;;;;33.20;22.73;;;;;;;7.76;44.71;99704.78;5014393;28;20030;-80
2023/02/21 05:52:16;;;;;;;33.65;20.27;;;;;;;8.05;44.75;99749.13;5014344;28;20130;-80
2023/02/21 05:54:42;;;;;;;37.15;19.85;;;;;;;7.28;44.50;99619.41;5012897;28;20419;-80
2023/02/21 05:57:08;;;;;;;37.17;20.73;;;;;;;8.26;43.93;99775.06;5012766;28;20037;-80
2023/02/21 05:59:33;;;;;;;38.70;22.80;;;;;;;7.55;44.56;99655.22;5014109;28;20022;-80
2023/02/21 06:01:59;;;;;;;40.08;23.50;;;;;;;7.78;44.23;99681.78;5012757;28;20487;-80
2023/02/21 06:04:24;;;;;;;36.00;21.52;;;;;;;8.12;44.41;99744.06;5012784;28;20414;-80
2023/02/21 06:06:50;;;;;;;37.95;22.70;;;;;;;8.04;43.99;99694.06;5014137;28;20056;-80
2023/02/21 06:09:17;;;;;;;39.65;23.33;;;;;;;7.76;43.75;99680.28;5013946;28;20087;-79
2023/02/21 06:11:43;;;;;;;36.85;22.80;;;;;;;7.83;43.81;99640.09;5012531;28;20105;-80
2023/02/21 06:14:16;;;;;;;43.13;21.73;;;;;;;7.54;44.07;99585.28;5013790;28;20109;-80
2023/02/21 06:16:41;;;;;;;37.97;21.65;;;;;;;8.39;43.51;99722.03;5013822;28;20045;-80
2023/02/21 06:19:09;;;;;;;43.80;28.73;;;;;;;8.39;43.76;99698.34;5013725;28;20029;-80
2023/02/21 06:21:34;;;;;;;59.58;34.00;;;;;;;8.93;43.22;99767.28;5013469;28;20053;-80
2023/02/21 06:24:01;;;;;;;64.07;34.50;;;;;;;8.84;43.52;99751.44;5013916;28;20039;-80
2023/02/21 06:26:27;;;;;;;58.10;30.27;;;;;;;8.73;43.13;99743.84;5010817;28;20034;-80
2023/02/21 06:28:53;;;;;;;61.05;32.33;;;;;;;8.93;43.19;99739.13;4992762;28;20030;-80
2023/02/21 06:31:19;;;;;;;53.95;30.05;;;;;;;9.10;42.89;99761.03;4995855;28;20570;-80
2023/02/21 06:33:47;;;;;;;51.53;30.42;;;;;;;8.39;42.90;99637.84;4994616;28;20027;-79
2023/02/21 06:36:16;;;;;;;54.25;32.78;;;;;;;9.01;42.91;99735.69;5019119;28;20032;-79
2023/02/21 06:38:51;;;;;;;55.45;32.53;;;;;;;9.21;42.88;99748.38;5012173;28;20036;-79
2023/02/21 06:41:23;;;;;;;60.17;40.95;;;;;;;8.33;42.85;99604.25;5013187;28;20117;-79
2023/02/21 06:43:50;;;;;;;65.97;37.65;;;;;;;9.28;43.04;99755.63;5011777;28;20065;-79
2023/02/21 06:46:21;;;;;;;54.97;35.58;;;;;;;9.02;43.10;99705.72;5013253;28;20079;-79
2023/02/21 06:48:47;;;;;;;56.08;36.40;;;;;;;8.95;42.80;99702.94;5011836;28;20111;-80
2023/02/21 06:51:13;;;;;;;76.32;48.97;;;;;;;9.15;43.12;99735.84;5016386;28;20417;-79
2023/02/21 06:53:40;;;;;;;68.57;45.28;;;;;;;9.27;42.65;99715.28;5031430;28;20036;-79
2023/02/21 06:56:06;;;;;;;69.25;45.50;;;;;;;9.46;42.64;99740.47;5031797;28;20067;-79
2023/02/21 06:58:32;;;;;;;81.75;48.15;;;;;;;9.44;42.44;99713.44;5029426;28;20030;-79
2023/02/21 07:00:57;;;;;;;81.15;51.55;;;;;;;8.87;42.49;99639.69;5032482;28;20113;-80
2023/02/21 07:03:23;;;;;;;76.07;48.55;;;;;;;9.25;42.42;99680.38;5032713;28;20079;-79
2023/02/21 07:05:48;;;;;;;73.00;48.97;;;;;;;9.63;42.50;99784.25;5032526;28;20035;-79
2023/02/21 07:08:14;;;;;;;70.38;45.95;;;;;;;9.35;42.55;99681.00;5019617;28;20033;-78
2023/02/21 07:10:39;;;;;;;74.28;46.42;;;;;;;9.30;42.33;99671.97;5014789;28;20091;-78
2023/02/21 07:13:04;;;;;;;85.30;44.67;;;;;;;9.76;42.38;99749.50;5021857;28;20038;-78
2023/02/21 07:15:30;;;;;;;80.38;43.08;;;;;;;9.13;42.53;99650.09;5016872;28;20037;-79
2023/02/21 07:17:55;;;;;;;75.45;39.03;;;;;;;8.89;42.81;99633.28;5006481;28;20083;-78
2023/02/21 07:20:21;;;;;;;68.78;35.17;;;;;;;9.36;42.40;99690.56;5018726;28;20120;-80
2023/02/21 07:22:46;;;;;;;70.72;34.25;;;;;;;9.37;42.85;99688.75;5020743;28;20045;-80
2023/02/21 07:25:17;;;;;;;49.63;27.17;;;;;;;9.40;42.39;99699.78;5012911;28;20112;-80
2023/02/21 07:27:43;;;;;;;61.40;25.53;;;;;;;9.08;42.57;99637.41;5013022;28;20458;-80
2023/02/21 07:30:10;;;;;;;66.22;29.40;;;;;;;9.79;42.34;99741.25;5009305;28;20036;-80
2023/02/21 07:32:35;;;;;;;56.00;27.77;;;;;;;8.79;42.09;99558.91;5001202;28;20112;-79
2023/02/21 07:35:01;;;;;;;53.70;26.30;;;;;;;9.74;41.95;99741.78;5015275;28;20109;-80
2023/02/21 07:37:26;;;;;;;50.47;23.25;;;;;;;9.83;42.22;99746.03;5008483;28;20117;-80
2023/02/21 07:39:52;;;;;;;41.83;19.98;;;;;;;9.15;42.33;99604.16;5003232;28;20503;-80
2023/02/21 07:42:18;;;;;;;38.85;22.85;;;;;;;9.33;42.43;99627.66;4996526;28;20088;-81
2023/02/21 07:44:43;;;;;;;33.13;19.98;;;;;;;9.41;41.81;99621.56;5005581;28;20030;-80
2023/02/21 07:47:09;;;;;;;41.33;22.65;;;;;;;9.72;41.85;99658.56;5020906;28;20040;-80
2023/02/21 07:49:39;;;;;;;39.10;22.67;;;;;;;10.38;42.18;99737.31;5013436;28;20033;-80
2023/02/21 07:52:05;;;;;;;46.90;25.77;;;;;;;9.56;42.10;99578.50;5010544;28;20032;-80
2023/02/21 07:54:31;;;;;;;42.25;22.63;;;;;;;9.79;41.94;99598.88;5011029;28;20022;-80
2023/02/21 07:56:56;;;;;;;42.92;23.33;;;;;;;10.45;41.75;99668.84;5011513;28;20057;-80
2023/02/21 07:59:22;;;;;;;40.17;23.30;;;;;;;9.79;41.84;99575.97;5011924;28;20498;-80
2023/02/21 08:01:48;;;;;;;41.13;22.30;;;;;;;10.39;41.74;99629.91;5006741;28;20251;-80
2023/02/21 08:04:13;;;;;;;37.90;22.40;;;;;;;10.49;41.63;99641.91;5000228;28;20113;-81
2023/02/21 08:06:39;;;;;;;36.53;22.83;;;;;;;10.54;41.40;99636.09;4992077;28;20116;-80
2023/02/21 08:09:05;;;;;;;36.25;22.10;;;;;;;10.66;41.48;99657.66;5000475;28;20036;-80
2023/02/21 08:11:31;;;;;;;38.72;21.08;;;;;;;10.38;41.09;99584.22;5006623;28;20038;-80
2023/02/21 08:13:56;;;;;;;43.05;23.73;;;;;;;9.82;40.98;99471.97;5010599;28;20030;-80
2023/02/21 08:16:22;;;;;;;31.75;21.73;;;;;;;10.60;41.57;99566.75;5012584;28;20026;-81
2023/02/21 08:18:49;;;;;;;41.20;23.20;;;;;;;9.81;41.63;99407.84;5015634;28;20026;-81
2023/02/21 08:21:15;;;;;;;35.10;21.77;;;;;;;11.26;41.01;99641.00;5013395;28;20784;-81
2023/02/21 08:23:41;;;;;;;38.38;19.85;;;;;;;10.99;40.92;99544.63;5022494;28;20084;-80
2023/02/21 08:26:06;;;;;;;27.63;17.70;;;;;;;11.26;40.28;99567.81;4999265;28;20101;-81
2023/02/21 08:28:32;;;;;;;34.70;19.83;;;;;;;11.77;40.44;99613.69;4994252;28;20034;-80
2023/02/21 08:30:57;;;;;;;20.48;13.18;;;;;;;12.28;40.30;99682.53;5005655;28;20026;-81
2023/02/21 08:33:23;;;;;;;11.15;6.70;;;;;;;11.76;39.21;99545.06;4999275;28;20513;-80
2023/02/21 08:35:49;;;;;;;5.45;3.78;;;;;;;12.17;38.77;99571.84;4993356;28;20538;-81
2023/02/21 08:38:14;;;;;;;4.53;2.80;;;;;;;13.16;37.81;99664.69;5001151;28;20038;-81
2023/02/21 08:40:39;;;;;;;5.65;3.25;;;;;;;13.45;37.59;99671.72;5013177;28;20040;-82
2023/02/21 08:43:05;;;;;;;4.45;2.80;;;;;;;12.78;36.88;99510.50;5019025;28;20037;-80
2023/02/21 08:45:31;;;;;;;6.25;3.10;;;;;;;13.90;36.14;99663.19;4992560;28;20034;-79
2023/02/21 08:47:57;;;;;;;4.82;2.88;;;;;;;13.50;35.60;99557.88;5008042;28;20029;-80
2023/02/21 08:50:25;;;;;;;4.70;3.80;;;;;;;13.67;35.17;99537.97;5013849;28;20022;-80
2023/02/21 08:52:51;;;;;;;6.80;3.05;;;;;;;14.54;35.14;99652.25;4991883;28;20088;-80
2023/02/21 08:55:16;;;;;;;4.93;3.33;;;;;;;14.31;34.68;99570.25;5007517;28;20022;-79
2023/02/21 08:57:42;;;;;;;6.15;3.42;;;;;;;14.17;34.77;99541.22;4998013;28;20026;-80
2023/02/21 09:00:09;;;;;;;3.22;2.63;;;;;;;14.21;34.45;99529.97;5012946;28;20030;-80
2023/02/21 09:02:38;;;;;;;4.00;2.65;;;;;;;15.00;34.29;99632.09;5034887;28;20064;-81
2023/02/21 09:05:10;;;;;;;6.40;2.72;;;;;;;14.61;33.92;99551.31;5023996;28;20065;-81
2023/02/21 09:07:35;;;;;;;6.63;2.47;;;;;;;15.22;33.33;99618.38;5013750;28;20510;-81
2023/02/21 09:10:01;;;;;;;5.07;2.72;;;;;;;14.78;33.55;99519.81;5033500;28;20032;-81
2023/02/21 09:12:26;;;;;;;4.28;2.30;;;;;;;15.07;33.36;99559.28;5035214;28;20025;-80
2023/02/21 09:14:52;;;;;;;6.32;2.10;;;;;;;14.92;32.87;99546.22;5013786;28;20041;-81
2023/02/21 09:17:17;;;;;;;3.50;2.40;;;;;;;15.68;33.09;99622.88;5014928;28;20499;-80
2023/02/21 09:19:43;;;;;;;9.73;2.75;;;;;;;15.79;32.94;99616.88;5016113;28;20040;-80
2023/02/21 09:22:09;;;;;;;6.13;3.80;;;;;;;15.49;32.17;99557.16;5031512;28;20041;-81
2023/02/21 09:24:36;;;;;;;5.47;3.00;;;;;;;15.69;32.41;99565.13;5016677;28;20491;-80
2023/02/21 09:27:02;;;;;;;3.40;2.55;;;;;;;15.73;32.20;99551.19;5010646;28;20538;-80
2023/02/21 09:29:30;;;;;;;9.07;2.45;;;;;;;16.20;31.63;99603.19;5023939;28;20447;-83
2023/02/21 09:31:56;;;;;;;4.85;2.42;;;;;;;16.30;31.80;99604.59;5022465;28;20554;-81
2023/02/21 09:34:22;;;;;;;5.78;1.80;;;;;;;16.39;31.31;99598.81;5013686;28;20061;-81
2023/02/21 09:36:49;;;;;;;3.20;1.83;;;;;;;16.47;31.31;99582.56;5007735;28;20157;-80
2023/02/21 09:39:15;;;;;;;2.85;2.25;;;;;;;15.88;31.02;99495.81;5002405;28;20506;-80
2023/02/21 09:41:45;;;;;;;4.82;2.20;;;;;;;16.01;30.84;99472.81;4999820;28;20410;-80
2023/02/21 09:44:29;;;;;;;4.97;3.13;;;;;;;16.63;30.83;99551.91;5007783;28;20080;-81
2023/02/21 09:47:02;;;;;;;3.38;2.55;;;;;;;16.83;29.74;99547.25;5013077;28;20084;-80
2023/02/21 09:49:36;;;;;;;4.00;2.28;;;;;;;16.68;29.12;99516.63;5013884;28;20104;-81
2023/02/21 09:52:02;;;;;;;2.33;1.88;;;;;;;17.20;29.59;99573.22;4995536;28;20030;-80
2023/02/21 09:54:34;;;;;;;3.00;1.95;;;;;;;17.17;29.36;99565.66;4991986;28;20464;-80
2023/02/21 09:57:03;;;;;;;;;;;;;;;17.34;28.90;99572.03;4997861;28;20043;-80
2023/02/21 09:59:29;;;;;;;5.65;1.73;;;;;;;17.39;29.29;99564.19;5014034;28;19995;-80
2023/02/21 10:02:10;;;;;;;4.95;2.42;;;;;;;17.57;28.92;99569.53;5013946;28;20060;-80
2023/02/21 10:04:54;;;;;;;2.60;2.25;;;;;;;17.66;28.31;99565.56;5013756;28;20414;-80
2023/02/21 10:07:50;;;;;;;6.75;4.45;;;;;;;17.82;27.58;99560.66;5013623;28;20022;-80
2023/02/21 10:10:46;;;;;;;4.35;2.00;;;;;;;17.91;27.05;99562.81;4994256;28;20041;-80
2023/02/21 10:13:39;;;;;;;5.10;2.30;;;;;;;18.02;25.90;99542.53;4999904;28;20062;-80
2023/02/21 10:16:32;;;;;;;5.55;2.22;;;;;;;18.11;26.21;99559.88;5004486;28;20030;-80
2023/02/21 10:19:05;;;;;;;5.05;1.80;;;;;;;17.70;26.83;99489.31;5006669;28;20103;-80
2023/02/21 10:21:36;;;;;;;4.90;1.70;;;;;;;17.77;26.12;99459.84;4995895;28;20038;-80
2023/02/21 10:24:11;;;;;;;3.47;1.50;;;;;;;17.29;26.26;99366.41;5002697;28;20105;-80
2023/02/21 10:26:41;;;;;;;2.78;1.40;;;;;;;17.92;26.54;99444.25;5003998;28;20089;-79
2023/02/21 10:29:23;;;;;;;2.38;1.75;;;;;;;18.56;26.18;99522.00;5014425;28;20025;-81
2023/02/21 10:31:52;;;;;;;;;;;;;;;18.56;26.45;99514.78;4995124;28;20132;-80
2023/02/21 10:34:28;;;;;;;6.07;2.13;;;;;;;18.68;25.41;99504.97;5017222;28;20608;-80
2023/02/21 10:36:56;;;;;;;4.22;2.35;;;;;;;18.86;26.17;99498.69;5005590;28;20551;-80
2023/02/21 10:39:34;;;;;;;5.53;2.10;;;;;;;18.98;25.36;99493.34;5011898;28;20018;-80
2023/02/21 10:42:00;;;;;;;2.63;1.95;;;;;;;18.27;25.79;99379.34;5022845;28;20029;-80
2023/02/21 10:44:30;;;;;;;4.90;1.20;;;;;;;19.14;24.77;99473.06;5016622;28;20018;-80
2023/02/21 10:47:18;;;;;;;2.60;2.00;;;;;;;19.20;25.16;99480.16;5006598;28;20029;-80
2023/02/21 10:50:04;;;;;;;6.38;2.80;;;;;;;18.94;25.32;99428.78;5019904;28;20469;-80
2023/02/21 10:52:36;;;;;;;10.82;3.20;;;;;;;19.00;25.43;99419.00;4998596;28;20411;-79
2023/02/21 10:55:17;;;;;;;3.58;2.40;;;;;;;19.43;25.40;99468.63;5010449;28;20029;-80
2023/02/21 10:57:46;;;;;;;4.93;1.77;;;;;;;19.23;25.31;99426.97;5011577;28;20097;-80
2023/02/21 11:00:27;;;;;;;3.53;2.05;;;;;;;19.53;25.36;99450.09;5010290;28;20030;-80
2023/02/21 11:03:01;;;;;;;4.32;2.35;;;;;;;19.64;23.98;99457.28;4997365;28;20104;-81
2023/02/21 11:05:27;;;;;;;4.65;2.40;;;;;;;19.67;25.07;99488.94;5009614;28;20037;-78
2023/02/21 11:08:01;;;;;;;4.00;2.10;;;;;;;19.78;24.37;99465.84;5022246;28;20021;-80
2023/02/21 11:10:30;;;;;;;4.18;1.88;;;;;;;19.74;24.63;99430.69;5009698;28;20053;-80
2023/02/21 11:13:04;;;;;;;2.97;1.83;;;;;;;19.90;24.48;99437.13;5008913;28;20473;-80
2023/02/21 11:15:30;;;;;;;9.30;3.90;;;;;;;19.39;24.77;99355.84;4967438;28;20137;-80
2023/02/21 11:18:16;;;;;;;7.00;2.63;;;;;;;19.87;24.31;99426.88;4991383;28;20026;-80
2023/02/21 11:20:42;;;;;;;3.10;2.10;;;;;;;19.93;24.59;99421.38;4987036;28;20019;-80
2023/02/21 11:23:43;;;;;;;3.50;2.00;;;;;;;20.07;23.67;99423.78;4978254;28;20062;-80
2023/02/21 11:26:11;;;;;;;3.07;2.10;;;;;;;19.34;24.39;99304.88;4972105;28;20042;-80
2023/02/21 11:28:42;;;;;;;3.75;2.53;;;;;;;19.83;24.36;99358.75;4975232;28;20727;-79
2023/02/21 11:31:13;;;;;;;3.53;2.58;;;;;;;20.27;23.95;99418.75;4971419;28;20415;-80
2023/02/21 11:33:50;;;;;;;3.38;1.90;;;;;;;20.26;23.80;99409.88;4978926;28;20093;-79
2023/02/21 11:36:20;;;;;;;2.50;1.95;;;;;;;20.05;23.99;99370.38;4971521;28;20023;-80
2023/02/21 11:39:22;;;;;;;5.53;2.58;;;;;;;19.72;23.81;99306.88;4972855;28;20027;-80
2023/02/21 11:42:01;;;;;;;4.35;2.47;;;;;;;19.96;23.99;99337.81;4972452;28;20026;-80
2023/02/21 11:44:36;;;;;;;4.05;3.65;;;;;;;19.94;24.12;99331.09;4988257;28;20029;-80
2023/02/21 11:47:07;;;;;;;4.95;2.72;;;;;;;20.30;24.17;99378.03;4991055;28;20539;-80
2023/02/21 11:50:00;;;;;;;4.72;2.58;;;;;;;20.25;24.06;99372.59;4984795;28;20419;-79
2023/02/21 11:52:34;;;;;;;4.38;2.42;;;;;;;20.23;24.16;99380.06;4979495;28;20096;-80
2023/02/21 11:54:59;;;;;;;3.10;2.78;;;;;;;19.81;24.24;99304.63;4977231;28;20488;-81
2023/02/21 11:57:51;;;;;;;2.17;1.80;;;;;;;20.08;23.58;99345.81;4975128;28;20034;-81
2023/02/21 12:00:16;;;;;;;4.30;2.30;;;;;;;20.12;24.60;99349.63;4970914;28;20038;-79
2023/02/21 12:03:08;;;;;;;4.95;2.13;;;;;;;20.12;24.37;99348.81;4972559;28;20030;-80
2023/02/21 12:05:45;;;;;;;3.78;1.95;;;;;;;20.09;24.29;99351.97;4981986;28;20555;-81
2023/02/21 12:08:35;;;;;;;3.97;2.15;;;;;;;20.06;24.06;99337.16;4992008;28;20380;-80
2023/02/21 12:11:21;;;;;;;7.07;2.33;;;;;;;20.01;24.40;99329.03;4992014;28;20027;-80
2023/02/21 12:13:59;;;;;;;3.17;2.33;;;;;;;19.75;24.28;99292.19;4989984;28;20052;-80
2023/02/21 12:16:32;;;;;;;3.42;2.25;;;;;;;19.30;24.08;99216.16;4991799;28;20038;-81
2023/02/21 12:19:29;;;;;;;2.33;1.75;;;;;;;19.79;24.55;99309.41;4971129;28;20059;-80
2023/02/21 12:22:22;;;;;;;2.80;1.65;;;;;;;19.90;24.37;99324.59;4971029;28;20055;-80
2023/02/21 12:25:09;;;;;;;5.72;5.13;;;;;;;19.88;24.05;99321.34;4984163;28;20037;-80
2023/02/21 12:28:08;;;;;;;3.75;3.05;;;;;;;19.86;23.96;99310.88;4989352;28;20030;-81
2023/02/21 12:31:01;;;;;;;3.90;2.95;;;;;;;19.80;23.65;99306.47;4990250;28;20044;-79
2023/02/21 12:33:44;;;;;;;3.60;2.30;;;;;;;19.24;22.96;99251.94;4989354;28;20034;-82
2023/02/21 12:36:48;;;;;;;4.30;1.85;;;;;;;19.79;24.04;99299.50;4985298;28;20029;-80
2023/02/21 12:39:31;;;;;;;5.85;3.33;;;;;;;19.82;23.47;99292.84;4972639;28;20033;-80
2023/02/21 12:42:25;;;;;;;5.03;2.33;;;;;;;19.84;23.72;99298.78;4984268;28;20087;-81
2023/02/21 12:44:54;;;;;;;3.55;2.38;;;;;;;19.82;23.70;99290.97;4977588;28;20035;-80
2023/02/21 12:47:38;;;;;;;2.33;2.13;;;;;;;19.84;23.82;99291.53;4999351;28;20499;-80
2023/02/21 12:50:22;;;;;;;3.92;2.28;;;;;;;19.85;23.76;99284.31;4990711;28;20031;-80
2023/02/21 12:53:10;;;;;;;3.95;2.85;;;;;;;19.88;23.25;99289.19;4980165;28;20035;-81
2023/02/21 12:55:41;;;;;;;3.53;2.40;;;;;;;18.81;23.69;99117.94;4999034;28;20101;-81
2023/02/21 12:58:30;;;;;;;5.57;2.53;;;;;;;19.89;22.96;99280.09;4983606;28;20132;-78
2023/02/21 13:01:09;;;;;;;3.65;2.20;;;;;;;19.56;23.53;99222.00;4977189;28;20026;-81
2023/02/21 13:03:59;;;;;;;4.53;2.50;;;;;;;19.91;23.46;99269.94;4991364;28;20018;-80
2023/02/21 13:06:30;;;;;;;5.63;3.60;;;;;;;19.23;23.65;99161.97;4982911;28;20037;-82
2023/02/21 13:08:58;;;;;;;5.78;4.05;;;;;;;19.95;23.68;99269.19;4982665;28;20049;-82
2023/02/21 13:11:42;;;;;;;3.92;2.05;;;;;;;20.00;23.84;99263.09;4983782;28;20034;-79
2023/02/21 13:14:17;;;;;;;3.20;2.20;;;;;;;20.02;23.92;99262.84;4970609;28;20113;-80
2023/02/21 13:16:42;;;;;;;3.13;2.17;;;;;;;19.69;23.90;99213.63;4989915;28;20026;-82
2023/02/21 13:19:11;;;;;;;4.95;3.78;;;;;;;19.60;23.50;99194.47;4983683;28;20030;-82
2023/02/21 13:21:52;;;;;;;3.13;2.42;;;;;;;20.06;23.59;99253.28;4976882;28;20444;-80
2023/02/21 13:24:44;;;;;;;2.70;1.77;;;;;;;20.06;22.92;99253.28;4980372;28;20443;-80
2023/02/21 13:27:30;;;;;;;4.47;2.33;;;;;;;20.10;23.41;99259.78;4990899;28;20029;-80
2023/02/21 13:30:12;;;;;;;3.45;2.33;;;;;;;19.70;23.11;99193.00;4988619;28;20042;-79
2023/02/21 13:32:39;;;;;;;4.18;1.70;;;;;;;19.66;23.34;99176.63;4994601;28;20535;-80
2023/02/21 13:35:08;;;;;;;3.50;1.48;;;;;;;19.69;23.01;99173.44;4977260;28;20027;-81
2023/02/21 13:37:35;;;;;;;2.95;1.65;;;;;;;19.75;23.35;99171.66;4981507;28;20027;-80
2023/02/21 13:40:17;;;;;;;4.20;1.77;;;;;;;20.21;23.07;99235.56;4989802;28;20107;-80
2023/02/21 13:42:42;;;;;;;;;;;;;;;20.13;23.16;99233.31;4996867;28;20022;-80
2023/02/21 13:45:20;;;;;;;2.72;1.90;;;;;;;19.98;23.49;99233.88;4986851;28;19920;-80
2023/02/21 13:47:52;;;;;;;3.55;2.63;;;;;;;20.24;23.43;99228.88;4979880;28;20027;-80
2023/02/21 13:50:33;;;;;;;5.30;2.42;;;;;;;20.27;23.18;99231.06;4991024;28;20062;-80
2023/02/21 13:53:07;;;;;;;5.63;4.57;;;;;;;20.32;23.25;99223.09;4984961;28;20041;-80
2023/02/21 13:55:37;;;;;;;5.25;3.17;;;;;;;20.28;23.06;99228.13;4993261;28;20022;-79
2023/02/21 13:58:04;;;;;;;2.45;2.17;;;;;;;20.40;22.89;99222.69;4995018;28;20029;-78
2023/02/21 14:00:29;;;;;;;5.05;3.35;;;;;;;20.46;22.82;99224.38;4988301;28;20061;-80
2023/02/21 14:03:08;;;;;;;3.63;2.47;;;;;;;20.51;22.57;99212.88;4994994;28;20559;-79
2023/02/21 14:05:49;;;;;;;4.03;2.70;;;;;;;20.52;22.84;99207.28;4992956;28;20093;-79